Time;durP1;ratioP1;P1;durP2;ratioP2;P2;SDS_P1;SDS_P2;PMS_P1;PMS_P2;Temp;Humidity;BMP_temperature;BMP_pressure;BME280_temperature;BME280_humidity;BME280_pressure;Samples;Min_cycle;Max_cycle;Signal;HPM_P1;HPM_P2
2023/05/21 00:08:47;;;;;;;29.23;14.20;;;18.30;92.70;;;;;;20842349;28;20219;-71
2023/05/21 00:18:49;;;;;;;24.83;15.67;;;18.30;93.10;;;;;;20841442;28;20241;-71
2023/05/21 00:28:51;;;;;;;19.27;14.43;;;18.20;93.40;;;;;;20841208;28;20612;-71
2023/05/21 00:38:53;;;;;;;21.67;15.17;;;18.20;93.60;;;;;;20840182;28;20267;-70
2023/05/21 00:48:56;;;;;;;19.33;14.67;;;18.10;94.00;;;;;;20839305;28;20206;-70
2023/05/21 00:58:58;;;;;;;24.23;15.90;;;18.00;94.70;;;;;;20839120;28;20237;-70
2023/05/21 01:09:03;;;;;;;22.43;15.60;;;18.00;94.80;;;;;;20836706;28;20222;-70
2023/05/21 01:19:09;;;;;;;19.27;15.13;;;17.90;95.10;;;;;;20836842;28;20234;-70
2023/05/21 01:29:12;;;;;;;18.67;15.37;;;17.90;95.40;;;;;;20836434;28;20238;-70
2023/05/21 01:39:18;;;;;;;20.83;15.23;;;17.80;95.60;;;;;;20835440;28;20681;-69
2023/05/21 01:49:20;;;;;;;17.87;14.43;;;17.70;95.90;;;;;;20834684;28;20304;-70
2023/05/21 01:59:22;;;;;;;19.53;13.87;;;17.70;96.10;;;;;;20834813;28;20577;-71
2023/05/21 02:09:23;;;;;;;18.20;14.13;;;17.70;96.30;;;;;;20854663;28;20221;-71
2023/05/21 02:19:26;;;;;;;18.57;14.53;;;17.60;96.30;;;;;;20868425;28;20640;-70
2023/05/21 02:29:28;;;;;;;21.17;14.67;;;17.60;96.50;;;;;;20831925;28;20707;-71
2023/05/21 02:39:30;;;;;;;19.30;13.67;;;17.60;96.60;;;;;;20840904;28;20220;-71
2023/05/21 02:49:31;;;;;;;16.73;13.20;;;17.60;96.60;;;;;;20873276;28;20718;-70
2023/05/21 02:59:33;;;;;;;18.67;13.70;;;17.40;96.50;;;;;;20829175;28;20338;-70
2023/05/21 03:09:35;;;;;;;17.87;12.90;;;17.50;96.90;;;;;;20829740;28;20234;-70
2023/05/21 03:19:36;;;;;;;20.40;13.43;;;17.50;96.90;;;;;;20829183;28;20249;-70
2023/05/21 03:29:38;;;;;;;18.90;13.37;;;17.50;97.00;;;;;;20837074;28;20765;-70
2023/05/21 03:39:40;;;;;;;19.57;15.17;;;17.50;97.10;;;;;;20844887;28;20208;-71
2023/05/21 03:49:42;;;;;;;18.23;14.87;;;17.30;97.40;;;;;;20844104;28;20340;-70
2023/05/21 03:59:44;;;;;;;22.30;15.47;;;17.20;97.80;;;;;;20843713;28;20217;-71
2023/05/21 04:09:45;;;;;;;18.53;13.40;;;17.20;98.00;;;;;;20842536;28;20636;-70
2023/05/21 04:19:47;;;;;;;15.70;12.90;;;17.20;98.10;;;;;;20841704;28;20218;-70
2023/05/21 04:29:49;;;;;;;17.40;12.83;;;17.20;98.10;;;;;;20841046;28;20256;-70
2023/05/21 04:39:52;;;;;;;19.43;12.70;;;17.30;98.30;;;;;;20838964;28;20569;-72
2023/05/21 04:49:54;;;;;;;15.73;12.57;;;17.30;98.30;;;;;;20839406;28;20260;-71
2023/05/21 04:59:56;;;;;;;17.03;12.60;;;17.30;98.30;;;;;;20838961;28;20301;-70
2023/05/21 05:09:58;;;;;;;19.47;13.10;;;17.40;98.50;;;;;;20837726;28;20235;-72
2023/05/21 05:20:00;;;;;;;16.40;12.43;;;17.50;98.40;;;;;;20838041;28;20216;-70
2023/05/21 05:30:02;;;;;;;15.37;12.60;;;17.70;98.30;;;;;;20872478;28;20237;-71
2023/05/21 05:40:05;;;;;;;14.03;12.33;;;17.90;98.10;;;;;;20835556;28;20298;-70
2023/05/21 05:50:07;;;;;;;16.80;11.60;;;18.20;97.90;;;;;;20833854;28;20240;-71
2023/05/21 06:00:12;;;;;;;16.30;11.53;;;18.40;97.50;;;;;;20834290;28;20295;-70
2023/05/21 06:10:14;;;;;;;14.93;11.33;;;18.70;97.20;;;;;;20833486;28;20267;-70
2023/05/21 06:20:15;;;;;;;12.60;10.70;;;19.00;96.80;;;;;;20832413;28;20635;-72
2023/05/21 06:30:17;;;;;;;16.97;11.23;;;19.20;96.50;;;;;;20831063;28;20693;-72
2023/05/21 06:40:19;;;;;;;15.17;10.90;;;19.50;96.30;;;;;;20830803;28;20291;-72
2023/05/21 06:50:21;;;;;;;13.20;10.53;;;19.80;95.60;;;;;;20866522;28;20726;-73
2023/05/21 07:00:24;;;;;;;14.97;10.60;;;19.90;95.80;;;;;;20889699;28;20658;-72
2023/05/21 07:10:26;;;;;;;14.07;10.33;;;20.10;95.20;;;;;;20857402;28;20260;-72
2023/05/21 07:20:28;;;;;;;15.43;10.40;;;20.40;95.20;;;;;;20855589;28;20206;-72
2023/05/21 07:30:30;;;;;;;11.47;9.87;;;20.50;94.40;;;;;;20876980;28;20231;-75
2023/05/21 07:40:31;;;;;;;12.77;10.17;;;20.70;93.40;;;;;;20948530;28;20306;-75
2023/05/21 07:50:33;;;;;;;28.17;10.73;;;21.10;93.00;;;;;;20951891;28;20234;-73
2023/05/21 08:00:43;;;;;;;15.83;9.33;;;21.40;92.30;;;;;;20933964;28;20226;-75
2023/05/21 08:10:46;;;;;;;12.00;9.97;;;21.60;91.30;;;;;;20888945;28;20457;-76
2023/05/21 08:20:49;;;;;;;11.80;9.20;;;22.10;90.00;;;;;;20897860;28;20225;-76
2023/05/21 08:30:51;;;;;;;15.13;9.13;;;22.20;88.90;;;;;;20966465;28;20311;-75
2023/05/21 08:40:54;;;;;;;13.30;8.33;;;22.50;87.30;;;;;;20959463;28;20223;-76
2023/05/21 08:50:57;;;;;;;11.30;8.90;;;22.70;84.90;;;;;;20964382;28;20232;-74
2023/05/21 09:00:59;;;;;;;11.17;8.33;;;22.90;83.30;;;;;;20974271;28;20207;-73
2023/05/21 09:11:02;;;;;;;10.63;8.70;;;23.10;80.90;;;;;;20958796;28;20284;-79
2023/05/21 09:21:25;;;;;;;15.37;8.63;;;23.30;79.20;;;;;;20960715;28;20203;-73
2023/05/21 09:31:28;;;;;;;10.17;8.10;;;23.50;77.80;;;;;;20957966;28;20314;-76
2023/05/21 09:41:34;;;;;;;11.27;7.80;;;23.60;76.50;;;;;;20954715;28;20287;-76
2023/05/21 09:51:37;;;;;;;10.97;8.30;;;23.80;74.90;;;;;;20960137;28;20597;-73
2023/05/21 10:01:39;;;;;;;13.97;9.13;;;24.00;73.30;;;;;;20953033;28;20200;-76
2023/05/21 10:11:43;;;;;;;12.73;8.60;;;24.20;72.70;;;;;;20960046;28;20235;-76
2023/05/21 10:21:46;;;;;;;17.53;10.40;;;24.40;72.00;;;;;;20950406;28;20227;-72
2023/05/21 10:31:51;;;;;;;24.00;11.00;;;24.60;68.50;;;;;;20958105;28;20231;-67
2023/05/21 10:42:30;;;;;;;24.10;8.23;;;24.60;69.20;;;;;;20945517;28;20204;-67
2023/05/21 10:53:01;;;;;;;11.37;7.70;;;24.60;66.90;;;;;;20932122;28;20231;-70
2023/05/21 11:03:04;;;;;;;8.23;6.83;;;24.80;64.60;;;;;;20953532;28;20287;-66
2023/05/21 11:13:15;;;;;;;8.60;7.23;;;24.80;63.10;;;;;;20950953;28;20227;-76
2023/05/21 11:23:20;;;;;;;9.57;7.33;;;25.00;62.70;;;;;;20950970;28;20231;-67
2023/05/21 11:33:22;;;;;;;9.97;7.20;;;25.20;61.50;;;;;;20952212;28;20276;-67
2023/05/21 11:43:26;;;;;;;7.57;6.77;;;25.40;59.90;;;;;;20949921;28;20242;-66
2023/05/21 11:53:29;;;;;;;14.18;7.55;;;25.80;59.00;;;;;;20964672;28;20702;-66
2023/05/21 12:03:33;;;;;;;9.50;6.88;;;26.10;58.30;;;;;;20963269;28;20211;-66
2023/05/21 12:13:36;;;;;;;7.63;6.93;;;26.50;57.00;;;;;;20969027;28;20723;-67
2023/05/21 12:23:38;;;;;;;8.02;6.90;;;26.60;56.30;;;;;;20962133;28;20593;-71
2023/05/21 12:33:42;;;;;;;9.70;7.38;;;26.90;55.00;;;;;;20924933;28;20323;-67
2023/05/21 12:43:45;;;;;;;10.38;7.15;;;27.00;54.80;;;;;;20925072;28;20667;-71
2023/05/21 12:53:47;;;;;;;11.10;7.07;;;27.20;54.40;;;;;;20921813;28;20246;-73
2023/05/21 13:03:50;;;;;;;8.48;6.53;;;27.30;53.90;;;;;;20919744;28;20222;-72
2023/05/21 13:13:51;;;;;;;8.20;6.20;;;27.30;53.20;;;;;;20920451;28;20228;-71
2023/05/21 13:23:53;;;;;;;7.20;6.50;;;27.30;50.70;;;;;;20945103;28;20698;-68
2023/05/21 13:33:55;;;;;;;6.65;5.35;;;27.60;49.80;;;;;;21001836;28;20766;-75
2023/05/21 13:43:57;;;;;;;8.65;6.03;;;28.00;49.10;;;;;;21000495;28;20602;-68
2023/05/21 13:53:59;;;;;;;8.60;6.05;;;28.30;47.90;;;;;;20999172;28;20662;-73
2023/05/21 14:04:03;;;;;;;7.03;6.10;;;28.60;47.50;;;;;;20998129;28;20569;-74
2023/05/21 14:14:05;;;;;;;6.57;5.93;;;29.30;47.00;;;;;;20996889;28;20662;-74
2023/05/21 14:24:06;;;;;;;6.97;5.82;;;30.40;46.20;;;;;;20996790;28;20227;-72
2023/05/21 14:34:09;;;;;;;10.70;5.97;;;32.50;42.10;;;;;;20996089;28;20231;-69
2023/05/21 14:44:10;;;;;;;8.00;5.90;;;34.80;40.50;;;;;;20995973;28;20242;-73
2023/05/21 14:54:12;;;;;;;7.00;6.30;;;33.20;40.40;;;;;;20995665;28;20241;-70
2023/05/21 15:04:14;;;;;;;8.95;6.88;;;32.90;40.70;;;;;;20995240;28;20586;-71
2023/05/21 15:14:16;;;;;;;10.32;5.80;;;34.10;39.60;;;;;;20994784;28;20240;-70
2023/05/21 15:24:18;;;;;;;6.70;5.60;;;35.50;37.90;;;;;;21000893;28;20235;-67
2023/05/21 15:34:19;;;;;;;15.70;6.10;;;34.60;38.60;;;;;;21010602;28;20364;-68
2023/05/21 15:44:21;;;;;;;9.68;5.70;;;33.50;39.20;;;;;;21011795;28;20203;-66
2023/05/21 15:54:23;;;;;;;6.95;6.05;;;32.90;40.30;;;;;;21015329;28;20698;-71
2023/05/21 16:04:25;;;;;;;13.55;6.22;;;32.70;40.40;;;;;;20990791;28;20222;-69
2023/05/21 16:14:28;;;;;;;10.07;6.50;;;33.20;41.60;;;;;;20995803;28;20242;-69
2023/05/21 16:24:29;;;;;;;8.88;6.15;;;32.70;42.50;;;;;;20965044;28;20245;-71
2023/05/21 16:34:33;;;;;;;10.38;6.38;;;32.90;40.90;;;;;;20965355;28;20274;-76
2023/05/21 16:44:36;;;;;;;9.60;5.93;;;32.90;41.50;;;;;;20922481;28;20236;-76
2023/05/21 16:54:38;;;;;;;9.70;6.45;;;34.10;39.10;;;;;;20984488;28;20813;-76
2023/05/21 17:04:40;;;;;;;7.75;6.50;;;34.00;40.00;;;;;;20985987;28;20222;-75
2023/05/21 17:14:41;;;;;;;12.00;6.28;;;35.80;38.50;;;;;;20989809;28;20285;-77
2023/05/21 17:24:43;;;;;;;9.93;6.18;;;34.40;39.90;;;;;;20983607;28;20318;-72
2023/05/21 17:34:45;;;;;;;12.10;6.75;;;33.40;41.00;;;;;;21001158;28;20238;-73
2023/05/21 17:44:47;;;;;;;15.25;7.53;;;32.90;41.80;;;;;;20999737;28;20211;-78
2023/05/21 17:54:48;;;;;;;9.35;6.80;;;31.00;44.10;;;;;;20999958;28;20395;-67
2023/05/21 18:04:50;;;;;;;10.68;7.55;;;29.40;46.70;;;;;;20980946;28;20239;-72
2023/05/21 18:14:52;;;;;;;11.23;6.93;;;28.30;48.70;;;;;;20998032;28;20241;-75
2023/05/21 18:24:54;;;;;;;12.33;7.00;;;27.30;50.60;;;;;;20973319;28;20584;-72
2023/05/21 18:34:57;;;;;;;15.83;8.20;;;25.70;53.40;;;;;;20945011;28;20779;-74
2023/05/21 18:45:08;;;;;;;12.67;8.27;;;25.60;54.40;;;;;;20913406;28;20258;-75
2023/05/21 18:55:10;;;;;;;11.90;7.70;;;25.10;55.80;;;;;;20928148;28;20243;-76
2023/05/21 19:05:12;;;;;;;10.50;8.13;;;24.60;56.80;;;;;;20932879;28;20247;-72
2023/05/21 19:15:14;;;;;;;10.27;7.87;;;24.30;58.00;;;;;;20912758;28;20703;-72
2023/05/21 19:25:16;;;;;;;15.13;8.50;;;23.90;59.20;;;;;;20949317;28;20267;-72
2023/05/21 19:35:18;;;;;;;12.77;7.87;;;23.60;60.30;;;;;;20992337;28;20231;-71
2023/05/21 19:45:21;;;;;;;10.43;8.37;;;23.40;61.50;;;;;;20991647;28;20223;-72
2023/05/21 19:55:23;;;;;;;14.17;9.10;;;23.20;62.50;;;;;;20991661;28;20308;-73
2023/05/21 20:05:25;;;;;;;13.43;9.00;;;22.90;63.10;;;;;;20990652;28;20211;-72
2023/05/21 20:15:27;;;;;;;14.30;9.03;;;22.70;65.20;;;;;;21003671;28;20337;-72
2023/05/21 20:25:29;;;;;;;17.57;9.10;;;22.60;66.20;;;;;;20968559;28;20310;-74
2023/05/21 20:35:31;;;;;;;13.33;9.50;;;22.40;67.50;;;;;;20932032;28;20228;-72
2023/05/21 20:45:34;;;;;;;11.50;8.97;;;22.10;68.90;;;;;;20946972;28;20299;-72
2023/05/21 20:55:37;;;;;;;26.07;9.80;;;22.00;70.60;;;;;;20959261;28;20244;-71
2023/05/21 21:05:38;;;;;;;24.43;13.73;;;21.70;72.40;;;;;;20918291;28;20204;-72
2023/05/21 21:15:42;;;;;;;15.23;10.03;;;21.40;74.70;;;;;;20935718;28;20343;-74
2023/05/21 21:25:47;;;;;;;29.70;11.00;;;21.20;76.80;;;;;;20916106;28;20588;-72
2023/05/21 21:35:50;;;;;;;27.30;10.77;;;21.00;78.20;;;;;;20918463;28;20282;-72
2023/05/21 21:45:51;;;;;;;16.00;10.40;;;20.50;81.70;;;;;;20915948;28;20235;-72
2023/05/21 21:55:54;;;;;;;23.47;11.50;;;20.30;83.20;;;;;;20913080;28;20234;-73
2023/05/21 22:05:56;;;;;;;22.30;11.17;;;20.30;84.10;;;;;;20916616;28;20250;-72
2023/05/21 22:15:58;;;;;;;22.90;11.50;;;20.20;85.50;;;;;;20916089;28;20327;-72
2023/05/21 22:25:59;;;;;;;20.47;11.53;;;20.00;87.10;;;;;;20914981;28;20314;-72
2023/05/21 22:36:01;;;;;;;18.43;10.90;;;19.80;88.80;;;;;;20913805;28;20661;-71
2023/05/21 22:46:03;;;;;;;20.57;11.30;;;19.80;89.90;;;;;;20913337;28;20242;-72
2023/05/21 22:56:05;;;;;;;25.43;11.63;;;19.70;90.50;;;;;;20921310;28;20583;-72
2023/05/21 23:06:07;;;;;;;37.47;12.87;;;19.50;91.00;;;;;;20915728;28;20298;-72
2023/05/21 23:16:09;;;;;;;26.87;12.63;;;19.40;91.60;;;;;;20912111;28;20239;-73
2023/05/21 23:26:10;;;;;;;27.90;11.60;;;19.20;92.20;;;;;;20911694;28;20251;-74
2023/05/21 23:36:12;;;;;;;22.80;12.90;;;19.20;92.60;;;;;;20909962;28;20233;-72
2023/05/21 23:46:14;;;;;;;14.87;11.37;;;19.10;93.00;;;;;;20918521;28;20208;-75
2023/05/21 23:56:16;;;;;;;14.97;11.27;;;18.90;93.40;;;;;;20926745;28;20243;-73
